UNNT/OVB METAR and TAF weather

Enter ICAO airport designator
Station Type Date Time Source
UNNT METAR 2021/05/14 03:30 UTC NOAA

UNNT 140330Z 01004MPS 330V040 CAVOK 13/04 Q1019 R25/090070 R34/090070 NOSIG RMK QFE754/1006


Station Type Date Time Source
UNNT Decoded METAR 2021/05/14 03:30 UTC NOAA

Station name not available
May 13, 2021 - 11:30 PM EDT / 2021.05.14 0330 UTC
Wind: from the N (010 degrees) at 9 MPH (8 KT) (direction variable):0
Visibility: greater than 7 mile(s):0
Temperature: 55 F (13 C)
Dew Point: 39 F (4 C)
Relative Humidity: 54%
Pressure (altimeter): 30.09 in. Hg (1019 hPa)
ob: UNNT 140330Z 01004MPS 330V040 CAVOK 13/04 Q1019 R25/090070 R34/090070 NOSIG RMK QFE754/1006
cycle: 3

Station Type Date Time Source
UNNT TAF 2021/05/14 03:21 UTC NOAA

TAF UNNT 140200Z 1403/1503 33005G12MPS 9999 SCT040
BECMG 1411/1414 23003G08MPS

Example: see airport list